createdAt,value
2022-10-17T00:00:12.930Z,5.45
2022-10-17T00:00:54.612Z,5.43
2022-10-17T00:01:36.334Z,5.90
2022-10-17T00:02:17.978Z,6.30
2022-10-17T00:02:59.634Z,6.10
2022-10-17T00:03:41.605Z,5.70
2022-10-17T00:04:23.279Z,5.75
2022-10-17T00:05:05.336Z,5.82
2022-10-17T00:05:48.795Z,5.78
2022-10-17T00:06:30.516Z,5.80
2022-10-17T00:07:12.247Z,6.00
2022-10-17T00:07:54.737Z,6.13
2022-10-17T00:08:37.590Z,6.30
2022-10-17T00:09:19.270Z,6.53
2022-10-17T00:10:00.911Z,6.00
2022-10-17T00:10:43.204Z,6.03
2022-10-17T00:11:26.651Z,6.60
2022-10-17T00:12:08.292Z,6.45
2022-10-17T00:12:51.653Z,5.80
2022-10-17T00:13:34.242Z,5.40
2022-10-17T00:14:15.916Z,5.50
2022-10-17T00:14:57.685Z,5.75
2022-10-17T00:15:44.519Z,6.18
2022-10-17T00:16:28.516Z,5.95
2022-10-17T00:17:10.202Z,5.80
2022-10-17T00:17:51.869Z,6.03
2022-10-17T00:18:33.627Z,7.10
2022-10-17T00:19:15.296Z,6.40
2022-10-17T00:19:59.208Z,5.80
2022-10-17T00:20:40.902Z,6.38
2022-10-17T00:21:23.618Z,6.68
2022-10-17T00:22:05.252Z,5.70
2022-10-17T00:22:46.947Z,6.22
2022-10-17T00:23:30.223Z,6.80
2022-10-17T00:24:11.927Z,6.50
2022-10-17T00:24:53.682Z,6.30
2022-10-17T00:25:35.371Z,6.50
2022-10-17T00:26:17.760Z,6.43
2022-10-17T00:26:59.498Z,6.18
2022-10-17T00:27:41.955Z,6.40
2022-10-17T00:28:23.645Z,6.20
2022-10-17T00:29:05.548Z,6.03
2022-10-17T00:29:50.838Z,6.20
2022-10-17T00:30:32.833Z,6.15
2022-10-17T00:31:14.835Z,5.93
2022-10-17T00:31:57.488Z,6.00
2022-10-17T00:32:39.835Z,5.72
2022-10-17T00:33:21.458Z,5.70
2022-10-17T00:34:03.150Z,5.80
2022-10-17T00:34:44.963Z,5.68
2022-10-17T00:35:26.663Z,5.88
2022-10-17T00:36:18.398Z,6.22
2022-10-17T00:37:00.101Z,6.40
2022-10-17T00:37:41.812Z,6.13
2022-10-17T00:38:23.462Z,6.00
2022-10-17T00:39:05.768Z,6.05
2022-10-17T00:39:47.393Z,6.40
2022-10-17T00:40:29.104Z,6.03
2022-10-17T00:41:14.254Z,5.90
2022-10-17T00:41:55.909Z,6.05
2022-10-17T00:42:37.671Z,5.88
2022-10-17T00:43:19.313Z,5.45
2022-10-17T00:44:05.698Z,5.95
2022-10-17T00:44:47.554Z,6.10
2022-10-17T00:45:31.549Z,6.30
2022-10-17T00:46:13.206Z,6.07
2022-10-17T00:46:56.076Z,5.55
2022-10-17T00:47:37.981Z,6.00
2022-10-17T00:48:23.142Z,6.65
2022-10-17T00:49:11.321Z,5.90
2022-10-17T00:49:53.138Z,6.10
2022-10-17T00:50:36.576Z,5.90
2022-10-17T00:51:22.908Z,6.40
2022-10-17T00:52:14.932Z,6.20
2022-10-17T00:53:01.257Z,6.10
2022-10-17T00:53:43.386Z,5.38
2022-10-17T00:54:30.690Z,5.70
2022-10-17T00:55:14.817Z,6.20
2022-10-17T00:55:56.463Z,5.65
2022-10-17T00:56:40.336Z,5.93
2022-10-17T00:57:22.221Z,6.20
2022-10-17T00:58:05.686Z,5.78
2022-10-17T00:58:47.962Z,5.70
2022-10-17T00:59:32.747Z,5.90
2022-10-17T01:00:15.991Z,6.10
2022-10-17T01:00:57.783Z,5.78
2022-10-17T01:01:43.362Z,6.07
2022-10-17T01:02:25.403Z,5.20
2022-10-17T01:03:07.198Z,5.40
2022-10-17T01:03:48.927Z,6.35
2022-10-17T01:04:30.899Z,6.13
2022-10-17T01:05:13.092Z,6.10
2022-10-17T01:05:55.144Z,5.90
2022-10-17T01:06:36.785Z,5.60
2022-10-17T01:07:18.651Z,5.35
2022-10-17T01:08:00.878Z,5.57
2022-10-17T01:08:42.633Z,5.50
2022-10-17T01:09:25.251Z,5.03
2022-10-17T01:10:08.302Z,5.72
2022-10-17T01:11:19.038Z,6.23
2022-10-17T01:12:21.819Z,5.50
2022-10-17T01:13:24.230Z,5.80
2022-10-17T01:14:31.906Z,5.57
2022-10-17T01:15:21.963Z,5.60
2022-10-17T01:16:24.509Z,5.38
2022-10-17T01:17:17.505Z,5.60
2022-10-17T01:18:13.709Z,5.40
2022-10-17T01:19:36.633Z,5.80
2022-10-17T01:20:39.349Z,5.70
2022-10-17T01:21:34.344Z,5.22
2022-10-17T01:22:36.371Z,5.90
2022-10-17T01:23:29.946Z,6.00
2022-10-17T01:24:33.291Z,5.80
2022-10-17T01:25:29.897Z,6.43
2022-10-17T01:26:26.384Z,5.90
2022-10-17T01:27:23.570Z,5.90
2022-10-17T01:28:45.430Z,5.90
2022-10-17T01:29:34.882Z,5.88
2022-10-17T01:30:28.233Z,5.30
2022-10-17T01:31:14.458Z,5.65
2022-10-17T01:32:02.546Z,5.70
2022-10-17T01:32:50.521Z,6.40
2022-10-17T01:34:00.243Z,6.03
2022-10-17T01:34:59.884Z,4.90
2022-10-17T01:36:14.552Z,5.20
2022-10-17T01:37:14.839Z,5.60
2022-10-17T01:38:10.523Z,6.00
2022-10-17T01:39:10.375Z,5.72
2022-10-17T01:40:10.610Z,5.68
2022-10-17T01:40:58.258Z,5.50
2022-10-17T01:42:10.627Z,5.10
2022-10-17T01:43:05.072Z,5.72
2022-10-17T01:44:09.707Z,5.53
2022-10-17T01:45:03.910Z,4.93
2022-10-17T01:45:49.977Z,5.57
2022-10-17T01:46:45.022Z,5.68
2022-10-17T01:47:30.665Z,6.38
2022-10-17T01:48:20.571Z,6.22
2022-10-17T01:49:04.519Z,5.80
2022-10-17T01:49:49.654Z,5.90
2022-10-17T01:50:43.539Z,6.10
2022-10-17T01:51:39.335Z,5.80
2022-10-17T01:52:26.697Z,6.20
2022-10-17T01:53:19.426Z,5.72
2022-10-17T01:54:11.959Z,5.82
2022-10-17T01:55:16.871Z,6.10
2022-10-17T01:56:02.731Z,5.60
2022-10-17T01:56:47.834Z,5.47
2022-10-17T01:57:31.589Z,5.93
2022-10-17T01:58:20.801Z,6.60
2022-10-17T01:59:13.031Z,5.60
2022-10-17T01:59:56.398Z,6.60
2022-10-17T02:00:39.830Z,7.00
2022-10-17T02:01:23.637Z,5.90
2022-10-17T02:02:07.339Z,6.32
2022-10-17T02:02:52.925Z,6.20
2022-10-17T02:03:35.574Z,6.30
2022-10-17T02:04:17.537Z,5.80
2022-10-17T02:05:48.562Z,6.00
2022-10-17T02:06:35.306Z,6.35
2022-10-17T02:07:17.257Z,6.15
2022-10-17T02:07:58.956Z,5.88
2022-10-17T02:08:51.524Z,6.57
2022-10-17T02:09:33.155Z,6.30
2022-10-17T02:10:38.554Z,6.78
2022-10-17T02:11:25.945Z,6.35
2022-10-17T02:12:13.548Z,6.40
2022-10-17T02:13:24.363Z,6.57
2022-10-17T02:15:31.802Z,6.65
2022-10-17T02:16:32.230Z,6.47
2022-10-17T02:17:40.129Z,6.40
2022-10-17T02:18:34.848Z,6.35
2022-10-17T02:19:36.646Z,6.20
2022-10-17T02:20:21.412Z,6.70
2022-10-17T02:21:44.270Z,5.85
2022-10-17T02:22:56.292Z,6.00
2022-10-17T02:23:56.438Z,6.80
2022-10-17T02:24:57.899Z,6.07
2022-10-17T02:26:11.914Z,5.70
2022-10-17T02:27:14.138Z,5.40
2022-10-17T02:28:14.784Z,5.70
2022-10-17T02:29:20.706Z,5.80
2022-10-17T02:30:14.430Z,5.70
2022-10-17T02:31:20.297Z,5.47
2022-10-17T02:32:09.617Z,6.40
2022-10-17T02:33:05.654Z,5.03
2022-10-17T02:33:56.923Z,6.15
2022-10-17T02:34:47.256Z,6.65
2022-10-17T02:35:35.591Z,5.82
2022-10-17T02:36:22.521Z,5.93
2022-10-17T02:37:07.058Z,5.45
2022-10-17T02:37:50.725Z,5.57
2022-10-17T02:38:33.166Z,5.82
2022-10-17T02:39:16.665Z,5.93
2022-10-17T02:40:00.463Z,5.32
2022-10-17T02:40:44.249Z,5.43
2022-10-17T02:41:26.893Z,5.45
2022-10-17T02:42:11.828Z,5.45
2022-10-17T02:42:55.651Z,6.60
2022-10-17T02:43:38.784Z,6.10
2022-10-17T02:44:21.761Z,6.72
2022-10-17T02:45:05.520Z,5.85
2022-10-17T02:45:47.871Z,5.78
2022-10-17T02:46:31.465Z,5.40
2022-10-17T02:47:21.779Z,5.60
2022-10-17T02:48:08.777Z,6.38
2022-10-17T02:48:53.328Z,5.60
2022-10-17T02:49:41.615Z,6.05
2022-10-17T02:51:23.969Z,5.38
2022-10-17T02:52:14.949Z,6.20
2022-10-17T02:53:01.126Z,5.95
2022-10-17T02:54:05.898Z,5.60
2022-10-17T02:55:15.437Z,5.60
2022-10-17T02:56:00.313Z,5.85
2022-10-17T02:56:54.709Z,6.47
2022-10-17T02:57:38.516Z,5.80
2022-10-17T02:58:25.397Z,5.72
2022-10-17T02:59:09.593Z,6.10
2022-10-17T02:59:51.695Z,6.00
2022-10-17T03:00:34.298Z,5.40
2022-10-17T03:01:17.161Z,5.80
2022-10-17T03:02:02.338Z,6.03
2022-10-17T03:02:43.920Z,5.38
2022-10-17T03:03:28.816Z,5.20
2022-10-17T03:04:13.694Z,5.90
2022-10-17T03:04:56.311Z,5.60
2022-10-17T03:05:37.967Z,5.70
2022-10-17T03:06:19.639Z,5.53
2022-10-17T03:07:01.330Z,5.80
2022-10-17T03:07:42.973Z,5.88
2022-10-17T03:08:24.862Z,5.45
2022-10-17T03:09:07.056Z,5.72
2022-10-17T03:09:48.710Z,6.50
2022-10-17T03:10:30.349Z,6.25
2022-10-17T03:11:11.985Z,5.95
2022-10-17T03:11:53.834Z,5.63
2022-10-17T03:12:35.458Z,5.80
2022-10-17T03:13:17.716Z,6.10
2022-10-17T03:13:59.447Z,5.68
2022-10-17T03:14:41.089Z,5.82
2022-10-17T03:15:22.693Z,6.20
2022-10-17T03:16:06.262Z,5.80
2022-10-17T03:16:47.934Z,5.50
2022-10-17T03:17:29.570Z,5.70
2022-10-17T03:18:11.210Z,5.65
2022-10-17T03:18:52.959Z,5.32
2022-10-17T03:19:34.599Z,5.82
2022-10-17T03:20:16.247Z,5.88
2022-10-17T03:20:57.875Z,6.10
2022-10-17T03:21:39.494Z,5.10
2022-10-17T03:22:21.192Z,5.28
2022-10-17T03:23:02.934Z,4.93
2022-10-17T03:23:44.663Z,5.55
2022-10-17T03:24:26.432Z,5.60
2022-10-17T03:25:08.307Z,5.40
2022-10-17T03:25:49.941Z,5.50
2022-10-17T03:26:31.734Z,5.88
2022-10-17T03:27:13.363Z,5.88
2022-10-17T03:27:57.589Z,4.93
2022-10-17T03:28:39.384Z,5.32
2022-10-17T03:29:21.060Z,5.63
2022-10-17T03:30:02.731Z,5.18
2022-10-17T03:30:44.350Z,6.30
2022-10-17T03:31:26.099Z,5.60
2022-10-17T03:32:07.978Z,5.30
2022-10-17T03:32:49.843Z,5.40
2022-10-17T03:33:31.507Z,5.28
2022-10-17T03:34:13.169Z,5.20
2022-10-17T03:34:54.840Z,5.30
2022-10-17T03:35:40.224Z,5.40
2022-10-17T03:36:22.069Z,5.22
2022-10-17T03:37:03.815Z,5.00
2022-10-17T03:37:45.434Z,5.25
2022-10-17T03:38:27.091Z,5.88
2022-10-17T03:39:08.737Z,5.40
2022-10-17T03:39:50.400Z,5.00
2022-10-17T03:40:32.021Z,5.30
2022-10-17T03:41:13.790Z,5.97
2022-10-17T03:41:55.431Z,6.35
2022-10-17T03:42:37.093Z,5.75
2022-10-17T03:43:18.726Z,5.45
2022-10-17T03:44:00.353Z,5.03
2022-10-17T03:44:42.036Z,5.50
2022-10-17T03:45:23.665Z,5.68
2022-10-17T03:46:06.273Z,5.60
2022-10-17T03:46:47.961Z,5.50
2022-10-17T03:47:29.903Z,5.80
2022-10-17T03:48:11.666Z,5.90
2022-10-17T03:48:53.615Z,5.63
2022-10-17T03:49:35.249Z,6.25
2022-10-17T03:50:17.044Z,5.65
2022-10-17T03:51:04.674Z,5.55
2022-10-17T03:51:46.296Z,5.20
2022-10-17T03:52:27.951Z,5.82
2022-10-17T03:53:09.662Z,5.63
2022-10-17T03:53:51.323Z,5.75
2022-10-17T03:54:32.970Z,5.60
2022-10-17T03:55:15.500Z,5.13
2022-10-17T03:56:08.213Z,5.80
2022-10-17T03:56:49.930Z,6.10
2022-10-17T03:57:31.954Z,6.00
2022-10-17T03:58:13.886Z,5.30
2022-10-17T03:58:56.094Z,5.93
2022-10-17T03:59:38.455Z,5.60
2022-10-17T04:00:20.193Z,5.68
2022-10-17T04:01:10.797Z,5.60
2022-10-17T04:01:52.485Z,6.07
2022-10-17T04:02:35.195Z,5.95
2022-10-17T04:03:17.422Z,6.30
2022-10-17T04:03:59.253Z,5.75
2022-10-17T04:04:40.941Z,6.22
2022-10-17T04:05:22.658Z,5.90
2022-10-17T04:06:05.418Z,5.57
2022-10-17T04:06:47.099Z,6.20
2022-10-17T04:07:28.789Z,5.53
2022-10-17T04:08:10.460Z,5.90
2022-10-17T04:08:52.166Z,6.07
2022-10-17T04:09:33.840Z,6.38
2022-10-17T04:10:15.811Z,5.77
2022-10-17T04:11:01.644Z,5.40
2022-10-17T04:11:43.335Z,5.90
2022-10-17T04:12:25.436Z,6.30
2022-10-17T04:13:07.139Z,5.70
2022-10-17T04:13:54.504Z,5.68
2022-10-17T04:14:37.119Z,5.90
2022-10-17T04:15:18.784Z,6.32
2022-10-17T04:16:03.095Z,6.57
2022-10-17T04:16:44.749Z,6.10
2022-10-17T04:17:26.454Z,5.80
2022-10-17T04:18:08.110Z,5.70
2022-10-17T04:18:56.540Z,6.10
2022-10-17T04:19:38.201Z,6.18
2022-10-17T04:20:19.837Z,5.70
2022-10-17T04:21:03.176Z,5.60
2022-10-17T04:21:44.860Z,5.50
2022-10-17T04:22:27.505Z,5.63
2022-10-17T04:23:09.415Z,5.35
2022-10-17T04:24:00.947Z,6.28
2022-10-17T04:24:42.878Z,6.13
2022-10-17T04:25:25.259Z,5.97
2022-10-17T04:26:07.257Z,5.70
2022-10-17T04:26:52.628Z,6.05
2022-10-17T04:27:34.309Z,5.65
2022-10-17T04:28:16.279Z,5.80
2022-10-17T04:28:57.916Z,5.60
2022-10-17T04:29:39.630Z,5.30
2022-10-17T04:30:21.452Z,5.50
2022-10-17T04:31:05.758Z,5.88
2022-10-17T04:31:47.733Z,5.70
2022-10-17T04:32:29.640Z,6.40
2022-10-17T04:33:11.501Z,5.72
2022-10-17T04:33:53.143Z,5.80
2022-10-17T04:34:34.819Z,6.10
2022-10-17T04:35:16.540Z,5.90
2022-10-17T04:36:03.454Z,6.10
2022-10-17T04:36:45.696Z,6.00
2022-10-17T04:37:29.470Z,5.93
2022-10-17T04:38:11.176Z,6.20
2022-10-17T04:38:52.833Z,6.25
2022-10-17T04:39:34.478Z,6.47
2022-10-17T04:40:16.130Z,6.40
2022-10-17T04:40:59.967Z,5.40
2022-10-17T04:41:41.698Z,5.40
2022-10-17T04:42:23.369Z,5.70
2022-10-17T04:43:04.995Z,5.30
2022-10-17T04:43:50.142Z,5.90
2022-10-17T04:44:33.983Z,6.43
2022-10-17T04:45:15.752Z,5.70
2022-10-17T04:45:58.733Z,5.60
2022-10-17T04:46:40.377Z,5.93
2022-10-17T04:47:22.002Z,5.87
2022-10-17T04:48:03.764Z,6.57
2022-10-17T04:48:45.449Z,5.50
2022-10-17T04:49:27.240Z,5.10
2022-10-17T04:50:09.292Z,5.25
2022-10-17T04:51:01.295Z,5.78
2022-10-17T04:51:42.946Z,6.25
2022-10-17T04:52:25.632Z,5.40
2022-10-17T04:53:07.272Z,5.70
2022-10-17T04:53:48.912Z,5.93
2022-10-17T04:54:30.535Z,5.80
2022-10-17T04:55:12.174Z,6.50
2022-10-17T04:55:53.876Z,6.22
2022-10-17T04:56:35.542Z,6.05
2022-10-17T04:57:17.500Z,5.63
2022-10-17T04:57:59.137Z,6.50
2022-10-17T04:58:41.903Z,6.10
2022-10-17T04:59:23.556Z,5.20
2022-10-17T05:00:05.724Z,5.57
2022-10-17T05:00:47.478Z,5.45
2022-10-17T05:01:29.191Z,5.60
2022-10-17T05:02:10.915Z,5.70
2022-10-17T05:02:53.953Z,5.22
2022-10-17T05:03:36.082Z,5.90
2022-10-17T05:04:21.057Z,5.70
2022-10-17T05:05:06.010Z,5.30
2022-10-17T05:05:48.192Z,5.55
2022-10-17T05:06:30.187Z,5.63
2022-10-17T05:07:11.845Z,5.80
2022-10-17T05:07:53.570Z,5.70
2022-10-17T05:08:35.587Z,5.60
2022-10-17T05:09:17.251Z,5.50
2022-10-17T05:09:58.910Z,5.70
2022-10-17T05:10:42.862Z,5.35
2022-10-17T05:11:27.246Z,5.30
2022-10-17T05:12:10.386Z,5.50
2022-10-17T05:12:52.287Z,6.00
2022-10-17T05:13:33.974Z,5.38
2022-10-17T05:14:15.772Z,5.70
2022-10-17T05:14:57.449Z,5.90
2022-10-17T05:15:39.857Z,5.68
2022-10-17T05:16:22.153Z,5.68
2022-10-17T05:17:03.809Z,6.07
2022-10-17T05:17:45.902Z,5.80
2022-10-17T05:18:28.975Z,6.03
2022-10-17T05:19:11.560Z,5.60
2022-10-17T05:19:53.213Z,6.93
2022-10-17T05:20:35.051Z,6.60
2022-10-17T05:21:17.483Z,6.00
2022-10-17T05:21:59.118Z,5.50
2022-10-17T05:22:42.117Z,5.32
2022-10-17T05:23:24.154Z,5.55
2022-10-17T05:24:09.955Z,5.88
2022-10-17T05:24:51.590Z,5.47
2022-10-17T05:25:33.207Z,5.47
2022-10-17T05:26:15.470Z,5.68
2022-10-17T05:26:57.094Z,5.88
2022-10-17T05:27:38.806Z,5.28
2022-10-17T05:28:20.422Z,5.60
2022-10-17T05:29:03.077Z,6.10
2022-10-17T05:29:45.667Z,5.70
2022-10-17T05:30:27.334Z,5.60
2022-10-17T05:31:10.551Z,5.38
2022-10-17T05:31:52.297Z,5.82
2022-10-17T05:32:34.079Z,6.30
2022-10-17T05:33:16.140Z,6.50
2022-10-17T05:34:02.551Z,5.93
2022-10-17T05:34:44.186Z,6.22
2022-10-17T05:35:25.888Z,6.03
2022-10-17T05:36:08.206Z,6.13
2022-10-17T05:36:49.881Z,6.05
2022-10-17T05:37:32.053Z,5.80
2022-10-17T05:38:13.725Z,5.88
2022-10-17T05:38:55.631Z,5.78
2022-10-17T05:39:37.325Z,5.50
2022-10-17T05:40:18.961Z,5.80
2022-10-17T05:41:01.958Z,4.90
2022-10-17T05:41:43.589Z,5.20
2022-10-17T05:42:25.334Z,5.72
2022-10-17T05:43:07.070Z,5.63
2022-10-17T05:43:50.151Z,5.88
2022-10-17T05:44:31.762Z,6.00
2022-10-17T05:45:13.814Z,5.70
2022-10-17T05:45:55.874Z,5.63
2022-10-17T05:46:37.541Z,5.85
2022-10-17T05:47:19.210Z,5.50
2022-10-17T05:48:00.856Z,5.63
2022-10-17T05:48:42.475Z,5.90
2022-10-17T05:49:33.424Z,5.78
2022-10-17T05:50:25.553Z,5.68
2022-10-17T05:51:10.674Z,5.72
2022-10-17T05:51:52.327Z,6.20
2022-10-17T05:52:34.082Z,5.53
2022-10-17T05:53:16.622Z,5.57
2022-10-17T05:53:58.237Z,5.45
2022-10-17T05:54:40.188Z,5.30
2022-10-17T05:55:22.371Z,5.30
2022-10-17T05:56:06.281Z,5.82
2022-10-17T05:56:52.422Z,5.57
2022-10-17T05:57:34.383Z,5.35
2022-10-17T05:58:22.168Z,5.97
2022-10-17T05:59:05.322Z,5.63
2022-10-17T05:59:46.942Z,5.60
2022-10-17T06:00:28.673Z,5.68
2022-10-17T06:01:12.773Z,5.13
2022-10-17T06:01:54.921Z,5.05
2022-10-17T06:02:36.593Z,5.50
2022-10-17T06:03:18.247Z,5.47
2022-10-17T06:03:59.875Z,5.50
2022-10-17T06:04:45.522Z,5.72
2022-10-17T06:05:27.333Z,5.20
2022-10-17T06:06:11.865Z,5.45
2022-10-17T06:06:53.742Z,5.32
2022-10-17T06:07:36.064Z,5.57
2022-10-17T06:08:17.960Z,5.95
2022-10-17T06:08:59.653Z,5.03
2022-10-17T06:09:41.428Z,5.47
2022-10-17T06:10:23.158Z,5.72
2022-10-17T06:11:09.089Z,5.53
2022-10-17T06:11:51.992Z,5.53
2022-10-17T06:12:34.035Z,5.45
2022-10-17T06:13:17.605Z,5.80
2022-10-17T06:13:59.364Z,5.60
2022-10-17T06:14:41.006Z,5.00
2022-10-17T06:15:22.649Z,5.30
2022-10-17T06:16:04.764Z,5.68
2022-10-17T06:16:46.485Z,5.25
2022-10-17T06:17:29.117Z,5.25
2022-10-17T06:18:11.150Z,5.20
2022-10-17T06:18:53.002Z,5.72
2022-10-17T06:19:35.315Z,5.40
2022-10-17T06:20:17.041Z,5.40
2022-10-17T06:21:06.948Z,5.55
2022-10-17T06:21:48.612Z,6.10
2022-10-17T06:22:30.861Z,5.65
2022-10-17T06:23:12.763Z,5.38
2022-10-17T06:23:54.534Z,5.25
2022-10-17T06:24:36.254Z,5.40
2022-10-17T06:25:17.925Z,5.72
2022-10-17T06:26:01.012Z,6.13
2022-10-17T06:26:42.702Z,5.90
2022-10-17T06:27:24.481Z,5.45
2022-10-17T06:28:06.382Z,5.32
2022-10-17T06:28:48.154Z,5.43
2022-10-17T06:29:29.928Z,5.47
2022-10-17T06:30:11.613Z,5.35
2022-10-17T06:30:53.258Z,5.90
2022-10-17T06:31:35.012Z,5.65
2022-10-17T06:32:16.934Z,5.63
2022-10-17T06:32:58.606Z,5.82
2022-10-17T06:33:40.771Z,5.15
2022-10-17T06:34:22.889Z,5.65
2022-10-17T06:35:04.869Z,5.50
2022-10-17T06:35:54.633Z,5.80
2022-10-17T06:36:36.246Z,5.03
2022-10-17T06:37:17.867Z,5.20
2022-10-17T06:37:59.494Z,5.50
2022-10-17T06:38:41.515Z,5.70
2022-10-17T06:39:24.753Z,5.60
2022-10-17T06:40:08.975Z,5.30
2022-10-17T06:40:50.663Z,5.82
2022-10-17T06:41:32.339Z,5.00
2022-10-17T06:42:14.015Z,5.20
2022-10-17T06:42:56.504Z,5.43
2022-10-17T06:43:38.316Z,5.70
2022-10-17T06:44:19.967Z,5.55
2022-10-17T06:45:01.622Z,5.50
2022-10-17T06:45:45.481Z,5.23
2022-10-17T06:46:29.658Z,5.30
2022-10-17T06:47:12.706Z,5.20
2022-10-17T06:47:56.031Z,5.22
2022-10-17T06:48:37.800Z,5.07
2022-10-17T06:49:19.460Z,5.18
2022-10-17T06:50:01.109Z,5.38
2022-10-17T06:50:42.757Z,5.57
2022-10-17T06:51:24.468Z,5.53
2022-10-17T06:52:06.227Z,5.38
2022-10-17T06:52:51.715Z,5.82
2022-10-17T06:53:34.739Z,5.53
2022-10-17T06:54:16.650Z,5.10
2022-10-17T06:54:58.326Z,4.60
2022-10-17T06:55:40.007Z,5.60
2022-10-17T06:56:21.647Z,5.80
2022-10-17T06:57:03.298Z,5.40
2022-10-17T06:57:44.932Z,5.78
2022-10-17T06:58:27.494Z,4.97
2022-10-17T06:59:10.579Z,5.50
2022-10-17T06:59:53.278Z,5.97
2022-10-17T07:00:35.055Z,5.05
2022-10-17T07:01:17.475Z,5.18
2022-10-17T07:02:00.378Z,5.65
2022-10-17T07:02:43.813Z,5.95
2022-10-17T07:03:25.566Z,5.53
2022-10-17T07:04:07.237Z,5.57
2022-10-17T07:04:48.901Z,5.80
2022-10-17T07:05:30.535Z,5.28
2022-10-17T07:06:12.256Z,5.10
2022-10-17T07:06:54.232Z,5.50
2022-10-17T07:07:38.910Z,5.40
2022-10-17T07:08:23.549Z,5.00
2022-10-17T07:09:06.895Z,5.30
2022-10-17T07:09:48.583Z,5.70
2022-10-17T07:10:30.331Z,5.10
2022-10-17T07:11:14.278Z,5.30
2022-10-17T07:11:56.139Z,5.38
2022-10-17T07:12:38.079Z,5.15
2022-10-17T07:13:20.765Z,5.30
2022-10-17T07:14:03.793Z,5.38
2022-10-17T07:14:47.554Z,5.10
2022-10-17T07:15:29.315Z,5.72
2022-10-17T07:16:11.783Z,5.38
2022-10-17T07:16:53.418Z,5.10
2022-10-17T07:17:38.162Z,5.50
2022-10-17T07:18:19.826Z,5.32
2022-10-17T07:19:01.553Z,5.38
2022-10-17T07:19:45.915Z,5.53
2022-10-17T07:20:27.580Z,6.13
2022-10-17T07:21:09.621Z,5.70
2022-10-17T07:21:51.279Z,5.03
2022-10-17T07:22:32.941Z,4.97
2022-10-17T07:23:14.594Z,5.70
2022-10-17T07:23:56.386Z,5.72
2022-10-17T07:24:38.209Z,5.13
2022-10-17T07:25:19.913Z,5.45
2022-10-17T07:26:02.328Z,5.70
2022-10-17T07:26:44.081Z,5.20
2022-10-17T07:27:25.815Z,5.40
2022-10-17T07:28:07.485Z,5.50
2022-10-17T07:28:53.238Z,5.60
2022-10-17T07:29:35.055Z,5.90
2022-10-17T07:30:17.257Z,5.30
2022-10-17T07:31:07.147Z,5.50
2022-10-17T07:31:49.854Z,5.15
2022-10-17T07:32:31.533Z,5.25
2022-10-17T07:33:13.175Z,5.75
2022-10-17T07:33:54.836Z,5.63
2022-10-17T07:34:37.206Z,5.40
2022-10-17T07:35:19.169Z,4.50
2022-10-17T07:36:01.787Z,4.55
2022-10-17T07:36:43.696Z,5.03
2022-10-17T07:37:25.353Z,4.82
2022-10-17T07:38:07.254Z,5.30
2022-10-17T07:38:48.931Z,5.55
2022-10-17T07:39:30.611Z,5.20
2022-10-17T07:40:12.380Z,5.57
2022-10-17T07:40:59.230Z,5.70
2022-10-17T07:41:40.967Z,5.45
2022-10-17T07:42:23.660Z,5.53
2022-10-17T07:43:05.358Z,5.53
2022-10-17T07:43:47.139Z,5.15
2022-10-17T07:44:29.072Z,4.60
2022-10-17T07:45:10.942Z,4.60
2022-10-17T07:45:53.551Z,5.50
2022-10-17T07:46:35.569Z,5.18
2022-10-17T07:47:17.360Z,5.35
2022-10-17T07:47:59.132Z,5.32
2022-10-17T07:48:40.849Z,4.55
2022-10-17T07:49:22.590Z,4.60
2022-10-17T07:50:06.093Z,4.90
2022-10-17T07:50:48.105Z,5.13
2022-10-17T07:51:29.867Z,5.07
2022-10-17T07:52:15.357Z,5.13
2022-10-17T07:52:57.049Z,5.00
2022-10-17T07:53:41.798Z,4.80
2022-10-17T07:54:25.677Z,4.60
2022-10-17T07:55:08.196Z,4.70
2022-10-17T07:55:51.321Z,5.30
2022-10-17T07:56:33.289Z,4.68
2022-10-17T07:57:14.975Z,4.80
2022-10-17T07:57:58.329Z,4.60
2022-10-17T07:58:40.166Z,4.55
2022-10-17T07:59:21.818Z,4.20
2022-10-17T08:00:03.882Z,5.00
2022-10-17T08:00:48.485Z,5.05
2022-10-17T08:01:30.454Z,4.40
2022-10-17T08:02:22.686Z,4.57
2022-10-17T08:03:04.776Z,4.70
2022-10-17T08:03:48.767Z,4.78
2022-10-17T08:04:30.564Z,4.60
2022-10-17T08:05:12.212Z,4.50
2022-10-17T08:05:58.554Z,4.43
2022-10-17T08:06:40.248Z,4.30
2022-10-17T08:07:26.803Z,4.50
2022-10-17T08:08:10.881Z,4.30
2022-10-17T08:08:52.577Z,4.05
2022-10-17T08:09:34.360Z,4.25
2022-10-17T08:10:16.730Z,4.23
2022-10-17T08:11:03.910Z,4.10
2022-10-17T08:11:46.155Z,4.80
2022-10-17T08:12:32.314Z,4.53
2022-10-17T08:13:14.330Z,4.32
2022-10-17T08:13:56.442Z,4.30
2022-10-17T08:14:39.205Z,4.78
2022-10-17T08:15:20.894Z,4.30
2022-10-17T08:16:04.331Z,4.30
2022-10-17T08:16:45.999Z,4.30
2022-10-17T08:17:27.992Z,4.57
2022-10-17T08:18:09.769Z,4.45
2022-10-17T08:18:52.865Z,4.28
2022-10-17T08:19:34.601Z,4.40
2022-10-17T08:20:16.831Z,4.30
2022-10-17T08:21:02.936Z,4.20
2022-10-17T08:21:46.795Z,4.47
2022-10-17T08:22:28.765Z,4.50
2022-10-17T08:23:10.823Z,4.10
2022-10-17T08:23:52.569Z,4.05
2022-10-17T08:24:34.543Z,4.57
2022-10-17T08:25:16.230Z,4.30
2022-10-17T08:26:06.641Z,4.50
2022-10-17T08:26:49.599Z,4.80
2022-10-17T08:27:34.725Z,4.50
2022-10-17T08:28:16.479Z,4.45
2022-10-17T08:28:58.382Z,4.35
2022-10-17T08:29:41.019Z,4.53
2022-10-17T08:30:22.649Z,4.40
2022-10-17T08:31:09.485Z,4.18
2022-10-17T08:31:54.179Z,4.57
2022-10-17T08:32:40.377Z,4.18
2022-10-17T08:33:22.036Z,4.30
2022-10-17T08:34:03.741Z,4.90
2022-10-17T08:34:45.445Z,4.80
2022-10-17T08:35:27.320Z,4.63
2022-10-17T08:36:09.596Z,4.70
2022-10-17T08:36:51.599Z,4.55
2022-10-17T08:37:33.595Z,4.50
2022-10-17T08:38:17.804Z,4.70
2022-10-17T08:39:02.669Z,4.50
2022-10-17T08:39:44.499Z,4.78
2022-10-17T08:40:29.067Z,4.40
2022-10-17T08:41:23.395Z,4.10
2022-10-17T08:42:34.535Z,4.60
2022-10-17T08:43:42.460Z,4.50
2022-10-17T08:44:30.448Z,4.35
2022-10-17T08:45:27.356Z,4.50
2022-10-17T08:46:09.773Z,4.50
2022-10-17T08:46:57.019Z,4.85
2022-10-17T08:47:43.162Z,4.13
2022-10-17T08:48:27.543Z,4.47
2022-10-17T08:49:34.342Z,4.70
2022-10-17T08:50:34.529Z,4.10
2022-10-17T08:51:22.993Z,4.40
2022-10-17T08:52:15.489Z,4.97
2022-10-17T08:53:08.936Z,4.30
2022-10-17T08:54:12.960Z,4.60
2022-10-17T08:54:54.595Z,4.50
2022-10-17T08:55:45.477Z,4.57
2022-10-17T08:56:48.128Z,4.60
2022-10-17T08:57:30.760Z,4.60
2022-10-17T08:58:27.713Z,4.78
2022-10-17T08:59:28.515Z,4.85
2022-10-17T09:00:19.427Z,4.65
2022-10-17T09:01:13.644Z,4.40
2022-10-17T09:02:12.342Z,3.88
2022-10-17T09:03:17.727Z,4.75
2022-10-17T09:04:22.356Z,3.80
2022-10-17T09:05:41.315Z,4.72
2022-10-17T09:06:32.431Z,3.95
2022-10-17T09:07:24.942Z,4.55
2022-10-17T09:08:31.919Z,4.10
2022-10-17T09:09:16.292Z,4.10
2022-10-17T09:10:15.496Z,4.40
2022-10-17T09:11:04.364Z,5.03
2022-10-17T09:11:56.315Z,4.32
2022-10-17T09:12:37.956Z,4.70
2022-10-17T09:13:19.565Z,4.30
2022-10-17T09:14:22.769Z,4.38
2022-10-17T09:15:35.456Z,4.50
2022-10-17T09:16:46.019Z,4.78
2022-10-17T09:17:34.799Z,4.90
2022-10-17T09:18:27.404Z,5.00
2022-10-17T09:19:15.554Z,4.40
2022-10-17T09:20:10.649Z,4.30
2022-10-17T09:21:11.350Z,4.45
2022-10-17T09:22:01.615Z,4.80
2022-10-17T09:23:12.803Z,4.43
2022-10-17T09:24:08.915Z,4.50
2022-10-17T09:25:03.411Z,4.55
2022-10-17T09:25:48.968Z,4.90
2022-10-17T09:26:30.957Z,5.15
2022-10-17T09:27:18.876Z,4.40
2022-10-17T09:28:36.023Z,4.50
2022-10-17T09:29:22.572Z,4.20
2022-10-17T09:30:40.148Z,4.20
2022-10-17T09:31:34.078Z,4.00
2022-10-17T09:32:21.931Z,4.70
2022-10-17T09:33:53.373Z,4.47
2022-10-17T09:34:36.190Z,4.10
2022-10-17T09:35:19.253Z,4.57
2022-10-17T09:36:04.096Z,4.70
2022-10-17T09:36:45.816Z,4.53
2022-10-17T09:37:32.605Z,4.35
2022-10-17T09:38:18.524Z,4.80
2022-10-17T09:39:12.729Z,4.40
2022-10-17T09:39:54.437Z,4.57
2022-10-17T09:40:40.345Z,4.13
2022-10-17T09:41:46.562Z,4.20
2022-10-17T09:42:29.072Z,4.90
2022-10-17T09:43:15.244Z,4.40
2022-10-17T09:43:58.221Z,4.50
2022-10-17T09:44:54.500Z,4.53
2022-10-17T09:45:44.193Z,4.30
2022-10-17T09:46:29.415Z,4.60
2022-10-17T09:47:36.523Z,4.40
2022-10-17T09:48:31.817Z,4.28
2022-10-17T09:49:18.489Z,3.90
2022-10-17T09:50:08.852Z,4.20
2022-10-17T09:51:02.523Z,4.70
2022-10-17T09:51:53.078Z,4.30
2022-10-17T09:52:39.487Z,4.80
2022-10-17T09:53:33.360Z,4.93
2022-10-17T09:54:26.574Z,4.40
2022-10-17T09:55:39.325Z,4.40
2022-10-17T09:56:21.449Z,4.60
2022-10-17T09:57:09.089Z,4.30
2022-10-17T09:57:57.761Z,4.25
2022-10-17T09:58:49.700Z,3.90
2022-10-17T09:59:33.547Z,4.07
2022-10-17T10:00:22.825Z,4.90
2022-10-17T10:01:23.706Z,4.55
2022-10-17T10:02:09.318Z,4.55
2022-10-17T10:02:51.012Z,3.90
2022-10-17T10:03:32.682Z,4.20
2022-10-17T10:04:16.220Z,4.50
2022-10-17T10:05:07.389Z,4.47
2022-10-17T10:06:05.232Z,4.40
2022-10-17T10:07:04.982Z,4.40
2022-10-17T10:08:05.899Z,4.65
2022-10-17T10:08:56.189Z,4.68
2022-10-17T10:09:39.657Z,4.77